createdAt,value
2022-11-10T00:00:37.521Z,85.75
2022-11-10T00:03:07.488Z,85.90
2022-11-10T00:05:37.899Z,86.04
2022-11-10T00:08:07.537Z,86.43
2022-11-10T00:10:57.159Z,86.81
2022-11-10T00:13:26.762Z,86.84
2022-11-10T00:16:12.719Z,87.60
2022-11-10T00:18:41.164Z,87.53
2022-11-10T00:21:12.756Z,88.04
2022-11-10T00:23:40.930Z,87.64
2022-11-10T00:26:14.254Z,87.66
2022-11-10T00:28:42.272Z,87.58
2022-11-10T00:31:10.656Z,87.69
2022-11-10T00:33:40.249Z,88.01
2022-11-10T00:36:11.268Z,88.83
2022-11-10T00:38:40.674Z,88.54
2022-11-10T00:41:08.534Z,89.36
2022-11-10T00:43:36.352Z,89.31
2022-11-10T00:46:04.210Z,89.38
2022-11-10T00:48:32.056Z,89.39
2022-11-10T00:50:59.880Z,89.04
2022-11-10T00:53:28.062Z,89.41
2022-11-10T00:55:57.291Z,89.32
2022-11-10T00:58:25.239Z,88.93
2022-11-10T01:00:53.309Z,89.08
2022-11-10T01:03:22.268Z,89.10
2022-11-10T01:05:50.371Z,88.80
2022-11-10T01:08:18.332Z,88.22
2022-11-10T01:10:46.178Z,89.17
2022-11-10T01:13:15.436Z,89.28
2022-11-10T01:15:44.386Z,89.13
2022-11-10T01:18:12.146Z,89.13
2022-11-10T01:20:39.960Z,88.56
2022-11-10T01:23:08.022Z,89.02
2022-11-10T01:25:35.826Z,89.99
2022-11-10T01:28:03.631Z,89.90
2022-11-10T01:30:33.329Z,90.00
2022-11-10T01:33:01.119Z,90.14
2022-11-10T01:35:28.871Z,90.14
2022-11-10T01:37:56.757Z,89.82
2022-11-10T01:40:24.727Z,89.47
2022-11-10T01:42:54.606Z,89.32
2022-11-10T01:45:44.591Z,89.18
2022-11-10T01:48:16.003Z,88.87
2022-11-10T01:50:46.022Z,89.08
2022-11-10T01:53:18.184Z,89.63
2022-11-10T01:55:49.260Z,89.43
2022-11-10T01:58:21.749Z,90.01
2022-11-10T02:00:51.610Z,89.75
2022-11-10T02:03:25.871Z,90.32
2022-11-10T02:05:54.261Z,90.08
2022-11-10T02:08:24.388Z,90.33
2022-11-10T02:10:52.233Z,90.71
2022-11-10T02:13:20.740Z,91.09
2022-11-10T02:15:53.440Z,91.22
2022-11-10T02:18:21.332Z,90.39
2022-11-10T02:20:50.845Z,90.55
2022-11-10T02:23:49.843Z,90.34
2022-11-10T02:26:21.879Z,90.75
2022-11-10T02:28:49.982Z,91.01
2022-11-10T02:31:17.791Z,90.97
2022-11-10T02:33:45.647Z,91.30
2022-11-10T02:36:15.151Z,91.88
2022-11-10T02:38:43.047Z,91.53
2022-11-10T02:41:10.802Z,91.65
2022-11-10T02:43:39.635Z,91.48
2022-11-10T02:46:07.879Z,91.33
2022-11-10T02:48:35.686Z,91.31
2022-11-10T02:51:03.554Z,91.78
2022-11-10T02:53:32.704Z,90.75
2022-11-10T02:56:00.538Z,91.76
2022-11-10T02:58:28.608Z,91.64
2022-11-10T03:00:56.497Z,91.58
2022-11-10T03:03:24.625Z,91.82
2022-11-10T03:05:52.784Z,91.74
2022-11-10T03:08:20.551Z,91.55
2022-11-10T03:10:49.753Z,91.50
2022-11-10T03:13:17.665Z,91.08
2022-11-10T03:15:45.447Z,90.92
2022-11-10T03:18:13.193Z,91.29
2022-11-10T03:20:41.605Z,91.54
2022-11-10T03:23:10.005Z,90.97
2022-11-10T03:25:38.565Z,91.49
2022-11-10T03:28:07.770Z,91.30
2022-11-10T03:30:35.856Z,91.15
2022-11-10T03:33:03.630Z,91.58
2022-11-10T03:35:31.474Z,91.51
2022-11-10T03:37:59.293Z,92.16
2022-11-10T03:40:27.105Z,91.84
2022-11-10T03:42:54.906Z,91.93
2022-11-10T03:45:24.001Z,92.16
2022-11-10T03:47:52.509Z,92.90
2022-11-10T03:50:20.667Z,92.05
2022-11-10T03:52:49.068Z,91.84
2022-11-10T03:55:19.443Z,91.03
2022-11-10T03:57:47.313Z,91.09
2022-11-10T04:00:16.409Z,90.51
2022-11-10T04:02:45.611Z,90.82
2022-11-10T04:05:30.679Z,90.80
2022-11-10T04:08:18.036Z,91.03
2022-11-10T04:10:46.339Z,90.82
2022-11-10T04:13:31.972Z,90.87
2022-11-10T04:15:59.755Z,92.05
2022-11-10T04:18:29.787Z,91.79
2022-11-10T04:20:59.572Z,92.04
2022-11-10T04:23:29.177Z,91.30
2022-11-10T04:26:17.577Z,91.34
2022-11-10T04:28:46.544Z,91.66
2022-11-10T04:31:15.537Z,92.29
2022-11-10T04:33:45.703Z,91.77
2022-11-10T04:36:15.693Z,91.15
2022-11-10T04:38:43.643Z,91.41
2022-11-10T04:41:11.704Z,91.09
2022-11-10T04:43:40.284Z,91.22
2022-11-10T04:46:11.962Z,91.33
2022-11-10T04:48:39.766Z,91.57
2022-11-10T04:51:09.113Z,91.82
2022-11-10T04:53:37.091Z,91.94
2022-11-10T04:56:05.192Z,92.08
2022-11-10T04:58:33.085Z,92.39
2022-11-10T05:01:01.044Z,92.21
2022-11-10T05:03:28.922Z,91.83
2022-11-10T05:05:56.751Z,91.90
2022-11-10T05:08:25.969Z,91.42
2022-11-10T05:10:53.803Z,91.84
2022-11-10T05:13:22.020Z,91.73
2022-11-10T05:15:50.132Z,90.94
2022-11-10T05:18:17.905Z,91.21
2022-11-10T05:20:45.888Z,91.29
2022-11-10T05:23:31.261Z,91.43
2022-11-10T05:26:00.447Z,91.93
2022-11-10T05:28:28.308Z,91.77
2022-11-10T05:30:56.165Z,91.43
2022-11-10T05:33:24.509Z,91.37
2022-11-10T05:35:52.955Z,91.01
2022-11-10T05:38:20.724Z,91.04
2022-11-10T05:40:48.821Z,91.12
2022-11-10T05:43:17.963Z,91.46
2022-11-10T05:45:45.753Z,92.17
2022-11-10T05:48:13.528Z,92.33
2022-11-10T05:50:41.304Z,93.04
2022-11-10T05:53:09.190Z,92.76
2022-11-10T05:55:36.992Z,92.63
2022-11-10T05:58:04.988Z,93.27
2022-11-10T06:00:35.603Z,92.79
2022-11-10T06:03:05.699Z,92.24
2022-11-10T06:05:35.972Z,91.31
2022-11-10T06:08:05.262Z,91.63
2022-11-10T06:10:33.708Z,92.19
2022-11-10T06:13:02.069Z,91.95
2022-11-10T06:15:30.209Z,92.19
2022-11-10T06:17:59.524Z,92.74
2022-11-10T06:20:27.593Z,92.41
2022-11-10T06:23:01.014Z,92.82
2022-11-10T06:25:30.055Z,92.25
2022-11-10T06:27:58.360Z,92.56
2022-11-10T06:30:26.881Z,91.34
2022-11-10T06:32:55.210Z,92.06
2022-11-10T06:35:25.527Z,92.18
2022-11-10T06:38:00.431Z,91.57
2022-11-10T06:40:28.721Z,91.85
2022-11-10T06:42:56.500Z,91.51
2022-11-10T06:45:25.074Z,91.43
2022-11-10T06:48:00.469Z,92.12
2022-11-10T06:50:29.733Z,91.38
2022-11-10T06:52:58.394Z,91.04
2022-11-10T06:55:26.421Z,90.63
2022-11-10T06:57:54.403Z,90.83
2022-11-10T07:00:22.981Z,90.15
2022-11-10T07:02:59.992Z,90.36
2022-11-10T07:05:29.193Z,89.79
2022-11-10T07:07:57.008Z,89.92
2022-11-10T07:10:24.915Z,89.76
2022-11-10T07:12:58.097Z,90.56
2022-11-10T07:15:26.017Z,89.65
2022-11-10T07:17:53.808Z,89.02
2022-11-10T07:20:21.633Z,89.18
2022-11-10T07:22:50.987Z,89.66
2022-11-10T07:25:18.813Z,89.42
2022-11-10T07:27:46.659Z,89.88
2022-11-10T07:30:15.308Z,89.26
2022-11-10T07:32:43.573Z,89.40
2022-11-10T07:35:11.352Z,88.49
2022-11-10T07:37:39.138Z,88.00
2022-11-10T07:40:09.595Z,88.24
2022-11-10T07:42:40.836Z,87.92
2022-11-10T07:45:10.187Z,88.34
2022-11-10T07:47:37.986Z,88.31
2022-11-10T07:50:06.565Z,88.53
2022-11-10T07:52:34.635Z,88.99
2022-11-10T07:55:02.380Z,89.11
2022-11-10T07:57:31.570Z,89.01
2022-11-10T07:59:59.318Z,89.45
2022-11-10T08:02:27.291Z,88.59
2022-11-10T08:04:55.161Z,88.73
2022-11-10T08:07:23.006Z,89.23
2022-11-10T08:09:51.621Z,88.87
2022-11-10T08:12:19.558Z,88.34
2022-11-10T08:14:48.684Z,87.14
2022-11-10T08:17:16.418Z,87.08
2022-11-10T08:19:44.358Z,87.80
2022-11-10T08:22:12.121Z,86.61
2022-11-10T08:24:39.886Z,86.65
2022-11-10T08:27:07.700Z,85.84
2022-11-10T08:29:35.463Z,85.90
2022-11-10T08:32:04.963Z,86.86
2022-11-10T08:34:32.777Z,86.51
2022-11-10T08:37:00.571Z,86.39
2022-11-10T08:39:38.479Z,86.81
2022-11-10T08:42:07.679Z,86.54
2022-11-10T08:44:35.629Z,86.16
2022-11-10T08:47:07.509Z,85.38
2022-11-10T08:49:35.374Z,85.27
2022-11-10T08:52:03.293Z,86.84
2022-11-10T08:54:31.620Z,84.95
2022-11-10T08:56:59.490Z,85.69
2022-11-10T08:59:27.294Z,84.95
2022-11-10T09:01:55.196Z,85.53
2022-11-10T09:04:24.632Z,85.64
2022-11-10T09:06:52.518Z,85.36
2022-11-10T09:09:20.488Z,86.27
2022-11-10T09:11:48.337Z,85.21
2022-11-10T09:14:16.411Z,84.17
2022-11-10T09:16:44.678Z,84.04
2022-11-10T09:19:18.464Z,83.86
2022-11-10T09:21:49.125Z,84.32
2022-11-10T09:24:16.948Z,85.00
2022-11-10T09:26:48.156Z,83.87
2022-11-10T09:29:17.528Z,82.99
2022-11-10T09:31:45.658Z,82.73
2022-11-10T09:34:13.679Z,82.58
2022-11-10T09:36:41.459Z,82.17
2022-11-10T09:39:10.714Z,81.97
2022-11-10T09:41:41.732Z,80.96
2022-11-10T09:44:15.460Z,79.90
2022-11-10T09:46:46.179Z,81.88
2022-11-10T09:49:26.734Z,81.39
2022-11-10T09:51:55.755Z,81.37
2022-11-10T09:54:37.088Z,81.93
2022-11-10T09:57:07.191Z,81.45
2022-11-10T09:59:35.946Z,82.38
2022-11-10T10:02:14.357Z,82.29
2022-11-10T10:04:59.728Z,81.33
2022-11-10T10:07:32.344Z,81.49
2022-11-10T10:10:17.136Z,79.60
2022-11-10T10:13:01.453Z,79.62
2022-11-10T10:15:38.131Z,79.33
2022-11-10T10:18:20.562Z,78.45
2022-11-10T10:21:06.732Z,78.83
2022-11-10T10:26:30.230Z,79.46
2022-11-10T10:29:02.435Z,80.37
2022-11-10T10:31:43.304Z,79.46
2022-11-10T10:34:16.262Z,79.65
2022-11-10T10:36:45.528Z,78.42
2022-11-10T10:39:17.352Z,79.24
2022-11-10T10:41:47.525Z,78.44
2022-11-10T10:44:17.416Z,78.01
2022-11-10T10:46:50.118Z,77.80
2022-11-10T10:49:28.723Z,78.33
2022-11-10T10:52:06.180Z,76.92
2022-11-10T10:54:35.548Z,76.16
2022-11-10T10:57:16.088Z,76.32
2022-11-10T10:59:44.183Z,76.37
2022-11-10T11:02:25.541Z,76.52
2022-11-10T11:05:12.355Z,76.69
2022-11-10T11:07:40.219Z,75.74
2022-11-10T11:10:20.592Z,75.92
2022-11-10T11:12:49.767Z,77.02
2022-11-10T11:15:25.891Z,76.40
2022-11-10T11:17:58.705Z,76.88
2022-11-10T11:20:47.597Z,75.98
2022-11-10T11:23:35.044Z,75.76
2022-11-10T11:26:11.249Z,75.67
2022-11-10T11:28:52.819Z,75.26
2022-11-10T11:31:28.046Z,75.33
2022-11-10T11:34:03.256Z,74.60
2022-11-10T11:36:41.688Z,74.87
2022-11-10T11:39:24.070Z,74.42
2022-11-10T11:42:00.030Z,75.56
2022-11-10T11:44:42.659Z,75.23
2022-11-10T11:47:26.323Z,75.35
2022-11-10T11:50:14.719Z,75.16
2022-11-10T11:52:53.464Z,74.64
2022-11-10T11:55:28.582Z,74.55
2022-11-10T11:58:12.855Z,75.04
2022-11-10T12:00:53.533Z,74.46
2022-11-10T12:03:48.699Z,74.15
2022-11-10T12:06:28.714Z,73.89
2022-11-10T12:09:02.817Z,73.72
2022-11-10T12:11:47.134Z,73.98
2022-11-10T12:14:22.583Z,73.32
2022-11-10T12:17:01.465Z,72.45
2022-11-10T12:19:39.943Z,73.00
2022-11-10T12:22:14.619Z,72.88
2022-11-10T12:25:07.426Z,73.30
2022-11-10T12:27:38.466Z,73.61
2022-11-10T12:30:10.894Z,72.53
2022-11-10T12:32:43.121Z,73.07
2022-11-10T12:35:20.537Z,72.94
2022-11-10T12:37:54.225Z,73.13
2022-11-10T12:40:25.470Z,73.01
2022-11-10T12:42:59.604Z,72.67
2022-11-10T12:45:32.290Z,73.03
2022-11-10T12:48:03.644Z,73.24
2022-11-10T12:50:52.473Z,71.84
2022-11-10T12:53:24.605Z,72.60
2022-11-10T12:55:56.529Z,72.95
2022-11-10T12:58:26.743Z,72.41
2022-11-10T13:01:00.586Z,72.24
2022-11-10T13:03:32.519Z,72.12
2022-11-10T13:06:02.425Z,72.29
2022-11-10T13:08:44.934Z,72.74
2022-11-10T13:11:25.699Z,73.07
2022-11-10T13:13:59.700Z,73.03
2022-11-10T13:16:51.329Z,72.41
2022-11-10T13:19:51.532Z,73.21
2022-11-10T13:22:37.045Z,72.92
2022-11-10T13:25:44.696Z,72.91
2022-11-10T13:28:15.683Z,73.70
2022-11-10T13:30:46.174Z,73.87
2022-11-10T13:33:37.923Z,73.78
2022-11-10T13:36:09.490Z,73.20
2022-11-10T13:38:40.110Z,73.25
2022-11-10T13:41:24.846Z,72.98
2022-11-10T13:43:54.700Z,72.63
2022-11-10T13:46:33.147Z,73.07
2022-11-10T13:49:45.172Z,72.32
2022-11-10T13:52:22.594Z,72.63
2022-11-10T13:55:13.193Z,73.24
2022-11-10T13:58:01.789Z,73.23
2022-11-10T14:00:35.551Z,73.78
2022-11-10T14:03:10.445Z,73.45
2022-11-10T14:06:12.339Z,73.34
2022-11-10T14:08:51.972Z,72.97
2022-11-10T14:11:28.719Z,73.86
2022-11-10T14:14:01.562Z,73.47
2022-11-10T14:16:33.197Z,73.94
2022-11-10T14:19:05.526Z,74.18
2022-11-10T14:21:47.396Z,74.29
2022-11-10T14:24:21.883Z,73.57
2022-11-10T14:26:53.307Z,74.30
2022-11-10T14:29:34.525Z,73.54
2022-11-10T14:32:05.413Z,73.74
2022-11-10T14:34:43.314Z,73.30
2022-11-10T14:37:24.527Z,73.39
2022-11-10T14:39:56.417Z,73.09
2022-11-10T14:42:27.059Z,73.63
2022-11-10T14:45:15.588Z,72.36
2022-11-10T14:47:43.939Z,72.90
2022-11-10T14:50:20.737Z,71.68
2022-11-10T14:52:53.005Z,72.45
2022-11-10T14:55:25.535Z,71.61
2022-11-10T14:58:01.177Z,72.21
2022-11-10T15:00:29.731Z,72.29
2022-11-10T15:02:59.381Z,72.25
2022-11-10T15:05:27.431Z,71.86
2022-11-10T15:07:58.146Z,71.81
2022-11-10T15:10:29.495Z,71.49
2022-11-10T15:13:06.461Z,71.62
2022-11-10T15:15:34.406Z,71.76
2022-11-10T15:18:02.333Z,71.57
2022-11-10T15:20:33.090Z,71.50
2022-11-10T15:23:02.729Z,72.35
2022-11-10T15:25:40.249Z,71.88
2022-11-10T15:28:22.191Z,71.97
2022-11-10T15:30:52.729Z,72.40
2022-11-10T15:33:26.591Z,71.61
2022-11-10T15:35:55.969Z,72.33
2022-11-10T15:38:33.278Z,72.16
2022-11-10T15:41:13.535Z,72.25
2022-11-10T15:43:41.858Z,71.91
2022-11-10T15:46:18.425Z,72.00
2022-11-10T15:48:49.429Z,72.32
2022-11-10T15:51:25.594Z,72.20
2022-11-10T15:53:55.464Z,71.96
2022-11-10T15:56:25.686Z,72.21
2022-11-10T15:58:59.196Z,72.07
2022-11-10T16:01:29.913Z,71.76
2022-11-10T16:03:57.780Z,71.47
2022-11-10T16:06:25.628Z,71.03
2022-11-10T16:08:53.514Z,71.37
2022-11-10T16:11:22.709Z,71.92
2022-11-10T16:13:54.038Z,71.27
2022-11-10T16:16:24.034Z,70.48
2022-11-10T16:18:54.893Z,70.70
2022-11-10T16:21:24.665Z,71.28
2022-11-10T16:23:53.847Z,71.22
2022-11-10T16:26:24.884Z,71.49
2022-11-10T16:28:54.090Z,70.78
2022-11-10T16:31:23.124Z,70.99
2022-11-10T16:33:51.258Z,70.97
2022-11-10T16:36:24.952Z,70.54
2022-11-10T16:38:53.093Z,70.74
2022-11-10T16:41:21.128Z,70.93
2022-11-10T16:43:48.944Z,70.84
2022-11-10T16:46:22.902Z,69.77
2022-11-10T16:48:53.773Z,70.17
2022-11-10T16:51:29.848Z,69.73
2022-11-10T16:53:59.507Z,69.66
2022-11-10T16:56:27.438Z,69.52
2022-11-10T16:58:56.044Z,70.09
2022-11-10T17:01:28.946Z,69.52
2022-11-10T17:03:59.453Z,69.46
2022-11-10T17:06:29.645Z,69.48
2022-11-10T17:09:02.626Z,69.27
2022-11-10T17:11:31.479Z,69.57
2022-11-10T17:13:59.239Z,69.83
2022-11-10T17:16:30.721Z,69.58
2022-11-10T17:19:01.491Z,69.67
2022-11-10T17:21:33.204Z,69.42
2022-11-10T17:24:01.848Z,69.72
2022-11-10T17:26:30.708Z,69.41
2022-11-10T17:28:58.520Z,69.56
2022-11-10T17:31:26.698Z,69.59
2022-11-10T17:33:56.221Z,69.43
2022-11-10T17:36:25.094Z,69.75
2022-11-10T17:38:53.370Z,69.97
2022-11-10T17:41:22.045Z,69.79
2022-11-10T17:43:50.071Z,69.79
2022-11-10T17:46:18.152Z,69.75
2022-11-10T17:48:47.682Z,70.48
2022-11-10T17:51:20.809Z,70.62
2022-11-10T17:53:50.595Z,70.26
2022-11-10T17:56:20.720Z,70.07
2022-11-10T17:58:48.517Z,70.27
2022-11-10T18:01:19.114Z,71.11
2022-11-10T18:03:47.315Z,70.95
2022-11-10T18:06:17.640Z,71.56
2022-11-10T18:08:45.938Z,71.15
2022-11-10T18:11:15.550Z,71.11
2022-11-10T18:13:44.396Z,70.85
2022-11-10T18:16:14.037Z,71.31
2022-11-10T18:18:42.529Z,71.14
2022-11-10T18:21:11.238Z,71.52
2022-11-10T18:23:40.432Z,70.76
2022-11-10T18:26:11.645Z,71.46
2022-11-10T18:28:40.522Z,70.49
2022-11-10T18:31:09.636Z,70.74
2022-11-10T18:33:38.024Z,71.10
2022-11-10T18:36:06.925Z,71.23
2022-11-10T18:38:35.857Z,70.98
2022-11-10T18:41:26.865Z,70.51
2022-11-10T18:43:54.743Z,71.01
2022-11-10T18:46:22.564Z,71.16
2022-11-10T18:48:50.559Z,71.41
2022-11-10T18:51:19.202Z,71.67
2022-11-10T18:53:47.371Z,71.91
2022-11-10T18:56:16.715Z,71.30
2022-11-10T18:58:44.559Z,71.68
2022-11-10T19:01:12.998Z,71.30
2022-11-10T19:03:42.822Z,71.34
2022-11-10T19:06:11.624Z,71.26
2022-11-10T19:08:39.991Z,70.75
2022-11-10T19:11:09.511Z,71.36
2022-11-10T19:13:39.387Z,70.85
2022-11-10T19:16:10.643Z,71.05
2022-11-10T19:18:39.666Z,71.18
2022-11-10T19:21:08.380Z,70.91
2022-11-10T19:23:36.729Z,71.03
2022-11-10T19:26:06.415Z,70.79
2022-11-10T19:28:34.245Z,70.53
2022-11-10T19:31:03.945Z,71.09
2022-11-10T19:33:32.657Z,70.79
2022-11-10T19:36:04.516Z,70.65
2022-11-10T19:38:32.497Z,70.97
2022-11-10T19:41:05.155Z,69.76
2022-11-10T19:43:33.036Z,70.37
2022-11-10T19:46:04.333Z,69.95
2022-11-10T19:48:33.280Z,70.17
2022-11-10T19:51:02.367Z,70.44
2022-11-10T19:53:30.711Z,69.89
2022-11-10T19:56:02.933Z,69.86
2022-11-10T19:58:31.402Z,69.90
2022-11-10T20:01:01.955Z,69.60
2022-11-10T20:03:31.407Z,69.90
2022-11-10T20:06:00.603Z,69.82
2022-11-10T20:08:29.296Z,69.23
2022-11-10T20:11:00.250Z,68.91
2022-11-10T20:13:28.097Z,68.80
2022-11-10T20:15:55.940Z,69.69
2022-11-10T20:18:24.008Z,70.17
2022-11-10T20:20:53.207Z,70.08
2022-11-10T20:23:21.315Z,70.11
2022-11-10T20:25:49.560Z,69.95
2022-11-10T20:28:17.424Z,70.02
2022-11-10T20:30:46.156Z,69.88
2022-11-10T20:33:14.238Z,69.89
2022-11-10T20:35:43.434Z,70.30
2022-11-10T20:38:13.105Z,69.51
2022-11-10T20:40:45.217Z,69.64
2022-11-10T20:43:14.812Z,70.03
2022-11-10T20:45:43.002Z,69.03
2022-11-10T20:48:11.413Z,69.29
2022-11-10T20:50:41.191Z,68.92
2022-11-10T20:53:09.231Z,69.21
2022-11-10T20:55:55.150Z,68.88
2022-11-10T20:58:24.389Z,68.85
2022-11-10T21:00:52.483Z,68.60
2022-11-10T21:03:20.654Z,69.17
2022-11-10T21:05:54.508Z,69.22
2022-11-10T21:08:23.060Z,69.13
2022-11-10T21:10:53.855Z,69.18
2022-11-10T21:13:21.821Z,68.85
2022-11-10T21:15:51.574Z,69.35
2022-11-10T21:18:20.284Z,69.25
2022-11-10T21:20:48.324Z,69.40
2022-11-10T21:23:16.866Z,69.69
2022-11-10T21:25:44.800Z,69.14
2022-11-10T21:28:14.108Z,69.07
2022-11-10T21:30:41.913Z,69.25
2022-11-10T21:33:09.825Z,69.13
2022-11-10T21:35:38.384Z,69.27
2022-11-10T21:38:06.641Z,68.80
2022-11-10T21:40:35.045Z,68.83
2022-11-10T21:43:03.039Z,68.56
2022-11-10T21:45:34.600Z,68.90
2022-11-10T21:48:02.739Z,68.80
2022-11-10T21:50:30.887Z,69.57
2022-11-10T21:52:58.781Z,69.19
2022-11-10T21:55:26.595Z,68.56
2022-11-10T21:57:59.128Z,68.89
2022-11-10T22:00:27.724Z,69.12
2022-11-10T22:03:00.546Z,68.73
2022-11-10T22:05:28.734Z,69.17
2022-11-10T22:07:56.598Z,69.14
2022-11-10T22:10:42.088Z,69.60
2022-11-10T22:13:33.181Z,68.95
2022-11-10T22:16:14.996Z,68.68
2022-11-10T22:18:46.623Z,68.75
2022-11-10T22:21:14.469Z,69.59
2022-11-10T22:23:59.876Z,70.45
2022-11-10T22:26:27.721Z,69.87
2022-11-10T22:28:55.557Z,70.02
2022-11-10T22:31:23.519Z,69.92
2022-11-10T22:33:52.701Z,70.48
2022-11-10T22:36:21.825Z,70.61
2022-11-10T22:38:57.961Z,70.36
2022-11-10T22:41:46.024Z,70.58
2022-11-10T22:44:14.606Z,71.14
2022-11-10T22:46:45.869Z,70.96
2022-11-10T22:49:16.719Z,70.29
2022-11-10T22:51:46.631Z,70.98
2022-11-10T22:54:16.068Z,71.23
2022-11-10T22:56:44.518Z,70.85
2022-11-10T22:59:13.034Z,71.75
2022-11-10T23:01:42.169Z,72.08
2022-11-10T23:04:11.312Z,71.74
2022-11-10T23:06:40.813Z,71.27
2022-11-10T23:09:09.085Z,71.64
2022-11-10T23:11:37.294Z,71.39
2022-11-10T23:14:05.248Z,71.49
2022-11-10T23:16:35.765Z,71.95
2022-11-10T23:19:04.161Z,72.43
2022-11-10T23:21:32.205Z,72.33
2022-11-10T23:24:01.744Z,72.17
2022-11-10T23:26:31.111Z,71.88
2022-11-10T23:28:59.152Z,72.50
2022-11-10T23:31:28.572Z,72.36
2022-11-10T23:33:57.808Z,72.23
2022-11-10T23:36:27.017Z,72.08
2022-11-10T23:38:55.948Z,72.38
2022-11-10T23:41:26.184Z,71.94
2022-11-10T23:43:55.448Z,72.47
2022-11-10T23:46:23.467Z,72.04
2022-11-10T23:48:51.573Z,72.05
2022-11-10T23:51:19.535Z,72.18
2022-11-10T23:53:47.531Z,72.01
2022-11-10T23:56:15.683Z,71.84
2022-11-10T23:58:45.182Z,71.84
